Clarksburg, Illinois
Current Conditions -  °F | °C
As of 5:15 AM on Wednesday 26 Nov 2014 (Local Time) from K1H2 Reporting Station
Clear Clear  
Wind Chill: 19°   Ceiling: Unl
Heat Index: 25°   Visibility: 10mi
Dew Point: 22°   Wind: 5mph
Humidity: 87%   Direction: 110°ESE
Pressure: 30.13"   Gusts: NA
Location:  39.3979°N, 88.811°W
Report Text: K1H2 261115Z AUTO 11004KT 10SM CLR M04/M06 A3013 RMK AO2 T10401058
Loading
Personal Weather Stations






























Interactive Weather Map New forecast layout! Learn more

10-Day Weather Forecast

Advertisements
Track Severe Weather on mobile